| time (UTC) | temp F | wind direction | speed knots | gust knots | rain 1hr in | rain 24hr in | rain mn in | humidity % | barometer mb |
| 20260507210501 | 60 | 9 | 0.0 | 0.0 | 0.00 | 0.04 | 0.04 | 72 | 1012.4 |
| 20260507205438 | 59 | 9 | 0.0 | 0.9 | 0.00 | 0.04 | 0.04 | 71 | 1012.4 |
| 20260507204412 | 60 | 9 | 0.0 | 0.0 | 0.00 | 0.04 | 0.04 | 70 | 1012.4 |
| 20260507202311 | 61 | 9 | 0.0 | 0.0 | 0.00 | 0.04 | 0.04 | 69 | 1012.3 |
| 20260507201258 | 62 | 9 | 0.0 | 0.0 | 0.00 | 0.04 | 0.04 | 67 | 1012.4 |
| 20260507200235 | 63 | 13 | 0.0 | 0.9 | 0.00 | 0.04 | 0.04 | 65 | 1012.2 |
| 20260507195204 | 63 | 13 | 0.0 | 0.0 | 0.00 | 0.04 | 0.04 | 66 | 1012.2 |
| 20260507194150 | 63 | 13 | 0.0 | 0.0 | 0.00 | 0.04 | 0.04 | 67 | 1012.1 |
| 20260507193209 | 63 | 13 | 0.0 | 0.0 | 0.00 | 0.04 | 0.04 | 67 | 1012.1 |
| 20260507192201 | 63 | 13 | 0.0 | 0.0 | 0.00 | 0.04 | 0.04 | 68 | 1012.1 |
| 20260507190003 | 63 | 44 | 0.0 | 0.0 | 0.00 | 0.05 | 0.04 | 64 | 1011.9 |
| 20260507184934 | 64 | 44 | 0.0 | 0.0 | 0.00 | 0.05 | 0.04 | 64 | 1012.0 |
| 20260507183956 | 65 | 44 | 0.0 | 0.0 | 0.00 | 0.05 | 0.04 | 63 | 1012.1 |
| 20260507183021 | 65 | 44 | 0.0 | 0.0 | 0.00 | 0.05 | 0.04 | 62 | 1012.0 |
| 20260507182022 | 65 | 44 | 0.0 | 0.0 | 0.00 | 0.05 | 0.04 | 62 | 1012.1 |
| 20260507181012 | 65 | 44 | 0.0 | 0.0 | 0.00 | 0.05 | 0.04 | 63 | 1012.0 |
| 20260507180034 | 66 | 44 | 0.0 | 0.0 | 0.00 | 0.05 | 0.04 | 63 | 1011.9 |
| 20260507173847 | 66 | 44 | 0.0 | 0.0 | 0.00 | 0.05 | 0.04 | 60 | 1011.7 |
| 20260507171735 | 67 | 44 | 0.0 | 0.0 | 0.00 | 0.06 | 0.04 | 61 | 1011.7 |
| 20260507165552 | 69 | 44 | 0.0 | 0.0 | 0.00 | 0.06 | 0.04 | 59 | 1011.6 |
| 20260507164607 | 69 | 44 | 0.0 | 0.0 | 0.00 | 0.06 | 0.04 | 60 | 1011.5 |
| 20260507163629 | 68 | 44 | 0.0 | 0.0 | 0.00 | 0.06 | 0.04 | 60 | 1011.5 |
| 20260507162619 | 67 | 44 | 0.0 | 0.0 | 0.00 | 0.06 | 0.04 | 61 | 1011.5 |
| 20260507161554 | 67 | 44 | 0.0 | 0.0 | 0.00 | 0.06 | 0.04 | 61 | 1011.6 |
| 20260507160559 | 68 | 44 | 0.0 | 0.0 | 0.00 | 0.06 | 0.04 | 61 | 1011.7 |
| 20260507155536 | 69 | 44 | 0.0 | 0.0 | 0.00 | 0.06 | 0.04 | 59 | 1011.8 |
| 20260507154516 | 69 | 49 | 0.0 | 0.0 | 0.00 | 0.06 | 0.04 | 56 | 1011.8 |
| 20260507153523 | 69 | 48 | 0.9 | 2.6 | 0.00 | 0.06 | 0.04 | 59 | 1011.9 |
| 20260507152546 | 69 | 62 | 0.0 | 2.6 | 0.00 | 0.06 | 0.04 | 60 | 1011.8 |
| 20260507151553 | 69 | 63 | 0.0 | 0.9 | 0.00 | 0.06 | 0.04 | 59 | 1011.9 |
| 20260507150604 | 70 | 62 | 0.0 | 0.0 | 0.00 | 0.07 | 0.04 | 60 | 1011.9 |
| 20260507145533 | 69 | 53 | 0.0 | 0.0 | 0.00 | 0.07 | 0.04 | 59 | 1012.0 |
| 20260507144522 | 69 | 63 | 0.9 | 2.6 | 0.00 | 0.07 | 0.04 | 60 | 1012.1 |
| 20260507143536 | 69 | 228 | 0.0 | 0.9 | 0.00 | 0.07 | 0.04 | 62 | 1012.1 |
| 20260507142541 | 69 | 223 | 0.0 | 0.0 | 0.00 | 0.07 | 0.04 | 62 | 1012.2 |
| 20260507141601 | 69 | 223 | 0.0 | 0.0 | 0.00 | 0.07 | 0.04 | 60 | 1012.4 |
| 20260507140615 | 70 | 223 | 0.0 | 1.7 | 0.00 | 0.07 | 0.04 | 59 | 1012.4 |
| 20260507135636 | 69 | 223 | 0.0 | 0.0 | 0.00 | 0.07 | 0.04 | 60 | 1012.6 |
| 20260507134616 | 70 | 223 | 0.0 | 0.0 | 0.00 | 0.07 | 0.04 | 60 | 1012.6 |
| 20260507133631 | 70 | 223 | 0.0 | 0.9 | 0.00 | 0.07 | 0.04 | 60 | 1012.8 |
| 20260507132636 | 70 | 223 | 0.0 | 1.7 | 0.00 | 0.07 | 0.04 | 58 | 1012.8 |
| 20260507130457 | 70 | 223 | 0.9 | 3.5 | 0.00 | 0.07 | 0.04 | 61 | 1013.0 |
| 20260507125426 | 69 | 283 | 0.9 | 5.2 | 0.00 | 0.07 | 0.04 | 61 | 1013.1 |
| 20260507124437 | 69 | 208 | 2.6 | 7.0 | 0.00 | 0.07 | 0.04 | 60 | 1013.1 |
| 20260507123406 | 69 | 238 | 1.7 | 7.0 | 0.00 | 0.07 | 0.04 | 58 | 1013.0 |
| 20260507122410 | 70 | 178 | 2.6 | 6.1 | 0.00 | 0.07 | 0.04 | 59 | 1013.0 |
| 20260507121410 | 70 | 228 | 0.9 | 3.5 | 0.00 | 0.07 | 0.04 | 58 | 1013.1 |
| 20260507120400 | 69 | 144 | 0.0 | 1.7 | 0.00 | 0.07 | 0.04 | 60 | 1013.1 |
| 20260507115340 | 68 | 100 | 1.7 | 5.2 | 0.00 | 0.07 | 0.04 | 62 | 1013.1 |
| 20260507114402 | 68 | 158 | 1.7 | 5.2 | 0.00 | 0.07 | 0.04 | 62 | 1013.2 |
| 20260507113353 | 68 | 125 | 0.9 | 5.2 | 0.00 | 0.07 | 0.04 | 62 | 1013.2 |
| 20260507112341 | 67 | 215 | 3.5 | 6.1 | 0.00 | 0.07 | 0.04 | 64 | 1013.3 |
| 20260507111335 | 67 | 165 | 1.7 | 7.0 | 0.00 | 0.07 | 0.04 | 66 | 1013.4 |
| 20260507110330 | 67 | 121 | 1.7 | 7.0 | 0.00 | 0.07 | 0.04 | 66 | 1013.5 |
| 20260507105322 | 66 | 230 | 1.7 | 5.2 | 0.00 | 0.07 | 0.04 | 67 | 1013.5 |
| 20260507104253 | 66 | 227 | 0.9 | 4.3 | 0.00 | 0.07 | 0.04 | 69 | 1013.6 |
| 20260507103301 | 65 | 156 | 1.7 | 6.1 | 0.00 | 0.07 | 0.04 | 70 | 1013.7 |
| 20260507102325 | 66 | 215 | 1.7 | 6.1 | 0.00 | 0.07 | 0.04 | 71 | 1013.8 |
| 20260507101350 | 66 | 240 | 2.6 | 6.1 | 0.00 | 0.07 | 0.04 | 71 | 1013.8 |
| 20260507100407 | 65 | 234 | 1.7 | 4.3 | 0.00 | 0.07 | 0.04 | 72 | 1013.7 |
| 20260507093147 | 64 | 202 | 0.9 | 3.5 | 0.00 | 0.07 | 0.04 | 76 | 1013.8 |
| 20260507092200 | 63 | 218 | 0.9 | 3.5 | 0.00 | 0.07 | 0.04 | 78 | 1013.9 |
| 20260507091139 | 63 | 213 | 0.9 | 4.3 | 0.00 | 0.07 | 0.04 | 79 | 1014.1 |
| 20260507090120 | 63 | 213 | 1.7 | 7.0 | 0.00 | 0.07 | 0.04 | 78 | 1014.1 |
| 20260507085133 | 63 | 94 | 0.9 | 6.1 | 0.00 | 0.07 | 0.04 | 78 | 1014.0 |
| 20260507084102 | 63 | 126 | 0.9 | 4.3 | 0.00 | 0.07 | 0.04 | 81 | 1013.9 |
| 20260507083045 | 62 | 190 | 1.7 | 7.0 | 0.00 | 0.07 | 0.04 | 82 | 1014.0 |
| 20260507080916 | 60 | 203 | 2.6 | 6.1 | 0.00 | 0.07 | 0.04 | 85 | 1014.1 |
| 20260507075940 | 60 | 192 | 2.6 | 6.1 | 0.00 | 0.07 | 0.04 | 85 | 1014.1 |
| 20260507074924 | 60 | 153 | 1.7 | 5.2 | 0.00 | 0.07 | 0.04 | 87 | 1013.9 |
| 20260507073942 | 59 | 202 | 1.7 | 6.1 | 0.00 | 0.07 | 0.04 | 88 | 1014.0 |
| 20260507072933 | 58 | 219 | 1.7 | 6.1 | 0.00 | 0.07 | 0.04 | 88 | 1013.9 |
| 20260507071904 | 58 | 223 | 2.6 | 7.0 | 0.00 | 0.07 | 0.04 | 88 | 1014.0 |
| 20260507070835 | 58 | 234 | 3.5 | 7.0 | 0.00 | 0.07 | 0.04 | 89 | 1014.0 |
| 20260507065856 | 57 | 214 | 2.6 | 6.1 | 0.00 | 0.07 | 0.04 | 89 | 1013.9 |
| 20260507064838 | 57 | 198 | 2.6 | 6.1 | 0.00 | 0.07 | 0.04 | 90 | 1013.8 |
| 20260507063836 | 57 | 199 | 2.6 | 7.0 | 0.00 | 0.07 | 0.04 | 90 | 1013.8 |
| 20260507062806 | 56 | 209 | 3.5 | 7.0 | 0.00 | 0.07 | 0.04 | 90 | 1013.7 |
| 20260507054421 | 55 | 170 | 0.0 | 5.2 | 0.00 | 0.07 | 0.04 | 92 | 1013.7 |
| 20260507053407 | 55 | 166 | 1.7 | 10.4 | 0.00 | 0.07 | 0.04 | 92 | 1013.7 |
| 20260507051301 | 55 | 148 | 2.6 | 8.7 | 0.00 | 0.08 | 0.04 | 92 | 1013.6 |
| 20260507050226 | 55 | 141 | 1.7 | 5.2 | 0.00 | 0.08 | 0.04 | 92 | 1013.5 |
| 20260507045231 | 55 | 206 | 3.5 | 7.8 | 0.00 | 0.08 | 0.04 | 92 | 1013.4 |
| 20260507043106 | 54 | 192 | 4.3 | 10.4 | 0.00 | 0.08 | 0.04 | 92 | 1013.1 |
| 20260507042119 | 55 | 165 | 3.5 | 9.6 | 0.00 | 0.08 | 0.04 | 92 | 1013.0 |
| 20260507041111 | 55 | 194 | 4.3 | 9.6 | 0.00 | 0.08 | 0.04 | 92 | 1012.9 |
| 20260507040126 | 55 | 204 | 3.5 | 8.7 | 0.00 | 0.08 | 0.04 | 92 | 1012.9 |
| 20260507035144 | 55 | 175 | 3.5 | 8.7 | 0.00 | 0.08 | 0.04 | 92 | 1012.7 |
| 20260507034110 | 55 | 167 | 4.3 | 8.7 | 0.00 | 0.08 | 0.04 | 92 | 1012.7 |
| 20260507033102 | 55 | 191 | 3.5 | 8.7 | 0.00 | 0.08 | 0.04 | 92 | 1012.7 |
| 20260507032046 | 55 | 173 | 4.3 | 8.7 | 0.00 | 0.08 | 0.04 | 92 | 1012.7 |
| 20260507031035 | 55 | 212 | 4.3 | 7.8 | 0.00 | 0.08 | 0.04 | 92 | 1012.7 |
| 20260507030048 | 55 | 198 | 3.5 | 7.0 | 0.00 | 0.08 | 0.04 | 92 | 1012.8 |
| 20260507023929 | 55 | 216 | 3.5 | 8.7 | 0.00 | 0.11 | 0.04 | 92 | 1012.8 |
| 20260507022905 | 55 | 173 | 3.5 | 9.6 | 0.00 | 0.11 | 0.04 | 92 | 1012.6 |
| 20260507021906 | 55 | 214 | 4.3 | 9.6 | 0.00 | 0.11 | 0.04 | 92 | 1012.6 |
| 20260507020859 | 55 | 206 | 4.3 | 8.7 | 0.00 | 0.11 | 0.04 | 92 | 1012.6 |
| 20260507015849 | 55 | 189 | 3.5 | 7.0 | 0.00 | 0.11 | 0.04 | 92 | 1012.6 |
| 20260507014911 | 55 | 186 | 2.6 | 7.0 | 0.00 | 0.11 | 0.04 | 92 | 1012.7 |
| 20260507013840 | 56 | 189 | 2.6 | 9.6 | 0.00 | 0.11 | 0.04 | 92 | 1012.6 |
| 20260507012853 | 56 | 172 | 4.3 | 9.6 | 0.00 | 0.11 | 0.04 | 92 | 1012.6 |
| 20260507011835 | 56 | 211 | 3.5 | 8.7 | 0.03 | 0.11 | 0.04 | 91 | 1012.6 |
| 20260507010839 | 56 | 235 | 3.5 | 8.7 | 0.03 | 0.11 | 0.04 | 91 | 1012.5 |
| 20260507005902 | 56 | 0 | 2.6 | 7.0 | 0.06 | 0.10 | 0.03 | 91 | 1012.5 |
| 20260507004843 | 56 | 217 | 3.5 | 12.2 | 0.05 | 0.09 | 0.03 | 90 | 1012.7 |
| 20260507002728 | 57 | 185 | 5.2 | 9.6 | 0.00 | 0.07 | 0.01 | 90 | 1012.7 |
| 20260507001746 | 57 | 204 | 4.3 | 9.6 | 0.00 | 0.07 | 0.01 | 90 | 1012.6 |
| 20260507000730 | 57 | 230 | 3.5 | 9.6 | 0.00 | 0.07 | 0.01 | 90 | 1012.7 |
| 20260506235659 | 57 | 208 | 3.5 | 8.7 | 0.00 | 0.07 | 0.01 | 90 | 1012.6 |
| 20260506234718 | 57 | 165 | 3.5 | 8.7 | 0.00 | 0.07 | 0.01 | 91 | 1012.6 |
| 20260506232624 | 58 | 196 | 2.6 | 6.1 | 0.00 | 0.07 | 0.01 | 90 | 1012.7 |
| 20260506231642 | 58 | 146 | 2.6 | 6.1 | 0.04 | 0.07 | 0.01 | 90 | 1012.7 |
| 20260506230628 | 58 | 190 | 1.7 | 7.0 | 0.10 | 0.07 | 0.01 | 89 | 1012.8 |
| 20260506225603 | 59 | 187 | 1.7 | 7.0 | 0.00 | 0.06 | 0.00 | 88 | 1012.9 |
| 20260506224600 | 59 | 234 | 2.6 | 7.0 | 0.00 | 0.06 | 0.00 | 88 | 1012.9 |
| 20260506223622 | 59 | 177 | 3.5 | 7.0 | 0.00 | 0.06 | 0.00 | 88 | 1013.0 |
| 20260506221455 | 59 | 214 | 2.6 | 6.1 | 0.00 | 0.06 | 0.00 | 87 | 1013.0 |
| 20260506220455 | 59 | 188 | 2.6 | 5.2 | 0.00 | 0.06 | 0.00 | 87 | 1012.9 |
| 20260506214336 | 59 | 189 | 5.2 | 8.7 | 0.00 | 0.06 | 0.06 | 87 | 1012.8 |
| 20260506213203 | 59 | 198 | 4.3 | 7.8 | 0.00 | 0.06 | 0.06 | 87 | 1012.8 |